Flight schools

Flying Academy USA

Flying Academy USA

Miami, Florida        Current temp 14 °C

Flying Academy Europe

Flying Academy Europe

Prague & Brno, Czech Republic        Current temp 2 °C

Flight school Flying Academy

With over 12 years of continuous activity in Europe and over 30 years in USA, Flying Academy is one of the fastest growing flight schools that provides a high standard of flight training in an airline-like environment.

  • Flying Academy is authorized in Europe by the Civil Aviation Authority as a EASA Approved Training Organization and in USA by the Federal Aviation Administration (FAA)
  • Our instructors are current or former airline pilots - you will get real life pilot experience
  • We offer free iPad mini for our students starting their professional flight training program
  • Our pilot courses are designated for future EASA and FAA private and commercial pilots

Welcome to a community of highly passionate staff! Everybody in Flying Academy thrives for each trainee’s success and the right training background will ensure you are best placed to achieve that dream with Flying Academy.

Read more about reasons why to choose us >>

 

News

Page 1 of 14  > >>

Flying Academy organizes refresh seminar FI, IRI

Seminar will be held at Brno base during the weekend of 20th and 21st of February 2016 from 9 AM till 4 PM. This seminar is designed to comply with regulation FCL.940.FI and its mandatory for all EASA licenced FIs, as they have to attend this seminar once in three years, since the date of issuance of their FI ratings.

After completion of this seminar, all participants will be provided with certificate according to AMC 1 FCL.940.FI(a)(2)FI. The price of this seminar is 4.000 CZK plus VAT. The next date of refresh seminar is on 26th and 27th of March 2016 in Brno.

Contact us for more information. 

continue reading >>

Celebrate the holiday season with Flying Academy. Special training offer available for Ground Staff only

Flying Academy has prepared a special training offer for Airline Professionals, those who want to experience aviation from a different perspective and become an ATPL holder!

This opportunity is available for ground staff only and will be available for a limited time. Apply from the 9th of November till the 9th of April 2016 and receive a special price to complete our Zero to Commercial training program with flexible scheduling, based on your roster.  

Become a professional Airline pilot in one of the fastest growing International Flight Training Centers both in Europe and in the USA. 

Contact our Flight Training Consultants to receive more information: email to fly@FlyingAcademy.com or call us on +420 2 2888 2444.

continue reading >>

Enrich your 0-ATPL training for experience in USA

http://www.flyingacademy.com/uploads/images/miami_coastline.png

Flying Academy offers our students the opportunity to fly part of the 0-ATPL training in our new Miami base. The course “0-ATPL with US experience” guides the students through the process of getting their Private Pilot License in the US all the way to the ATPL level. This includes the frozen ATPL(A) written exam as well the required practical exams for the Instrument Rating as well as the CPL+ MEP done in our Czech Republic base.

ATPL is the highest level of aircraft pilot certification. ATPL course is meant for future airline pilots. ATPL certified pilots are authorized to act as Pilot-in-Command [commander] of an aircraft in any airline.

See the course outline HERE.

continue reading >>

archive

Latest blog post

Page 1 of 9  > >>

Time Building in Miami is a perfect solution for improving your flight skills and for leisure time!

Milan, trainee from Slovakia just came back from Flying Academy, Miami training base, where he did his Time Building. He spent there 28 days and completed about 75 hours of flying.

It happened to be not only an important professional experience, but also an amazing family vacation. 

“Together with my wife we went to Naples, Stuart, Tampa, NASA space shuttle centre, Universal studios in Orlando and many other sightseeing flights along the coast. It is a nice way to fly and also see Florida as a tourist,” describes Milan.

Read more in our latest blog post HERE.

continue reading >>

archive

Latest weather

LKTB

LKTB 130200Z 07007KT 9999 -RA BKN010 OVC015 03/02 Q0996 NOSIG

LKPR

LKPR 130200Z VRB02KT 8000 OVC022 M01/M02 Q0996 NOSIG

LKKV

LKKV 130200Z 08006KT 6000 OVC005 M02/M03 Q0995

KTMB

KTMB 130153Z 00000KT 10SM CLR 15/12 A3024 RMK AO2 SLP238 T01500122



Briefing tools

METAR & TAF Europe

METAR & TAF CZ

Weather Radar CZ

AIP Czech Republic

Integrated ATPL(A) with 750 hours of ground, MCC, JOC on B737NG or A320 FFS + interview preparation course Register now!